Flight Track Log - Related Links

Times and Time Zones

All times are in EDT time to prevent confusion due to time zone crossing. See the ASQ6041 flight status page for this flight to view local times or setup timezone preferences in your user account.

Time Position Orientation Groundspeed Altitude Reporting Facility
EDT Latitude Longitude Course Direction KTS MPH feet Rate Location/Type
Sun 12:01:25 PM 39.9167 -104.7000 90° East 204 235 7,300  Level Denver TRACON
Sun 12:02:24 PM 39.9500 -104.6333 57° Northeast 279 321 8,900 1,474 Climbing Denver TRACON
Sun 12:03:19 PM 39.9500 -104.5333 90° East 303 349 10,100 574 Climbing Denver TRACON
Sun 12:04:00 PM 39.8667 -104.1163 90° East  Level FlightAware Approximate
Sun 12:04:19 PM 39.9500 -104.4167 90° East 356 410 10,000  Level Denver TRACON
Sun 12:04:57 PM 39.9397 -104.3381 100° East 359 413 10,500 1,879 Climbing Denver Center
Sun 12:05:00 PM 39.8667 -103.9784 90° East  Level FlightAware Approximate
Sun 12:05:58 PM 39.9122 -104.2044 105° East 355 409 13,100  Level Denver Center
Sun 12:06:00 PM 39.8667 -103.8405 90° East  Level FlightAware Approximate
Sun 12:07:00 PM 39.9225 -104.0831 84° East 344 396 15,400  Level Denver Center
Sun 12:08:02 PM 39.9417 -103.9558 79° East 358 412 16,800 1,258 Climbing Denver Center
Sun 12:09:04 PM 39.9650 -103.8106 78° East 379 436 18,000 1,103 Climbing Denver Center
Sun 12:10:18 PM 39.9869 -103.6744 78° East 383 441 19,300 1,324 Climbing Denver Center
Sun 12:11:20 PM 40.0147 -103.5039 78° East 397 457 21,000 1,452 Climbing Denver Center
Sun 12:12:22 PM 40.0361 -103.3594 79° East 404 465 22,300 1,306 Climbing Denver Center
Sun 12:13:24 PM 40.0581 -103.2153 79° East 407 468 23,700 1,452 Climbing Denver Center
Sun 12:14:26 PM 40.0853 -103.0408 78° East 409 471 25,300 1,463 Climbing Denver Center
Sun 12:15:27 PM 40.1069 -102.8947 79° East 412 474 26,700 1,317 Climbing Denver Center
Sun 12:16:29 PM 40.1283 -102.7464 79° East 415 478 28,000 1,113 Climbing Denver Center
Sun 12:17:31 PM 40.1492 -102.5989 79° East 423 487 29,000 484 Climbing Denver Center
Sun 12:18:33 PM 40.1761 -102.4189 79° East 452 520 29,000  Level Denver Center
Sun 12:19:35 PM 40.1989 -102.2550 80° East 477 549 29,000  Level Denver Center
Sun 12:20:37 PM 40.2206 -102.1142 79° East 491 565 29,000  Level Denver Center
Sun 12:21:39 PM 40.2528 -101.8881 79° East 497 572 29,000  Level Denver Center
Sun 12:22:41 PM 40.2800 -101.6894 80° East 497 572 29,000  Level Denver Center
Sun 12:23:43 PM 40.3022 -101.5206 80° East 495 570 29,000  Level Denver Center
Sun 12:24:45 PM 40.3300 -101.3233 79° East 495 570 29,000  Level Denver Center
Sun 12:25:47 PM 40.3522 -101.1556 80° East 491 565 29,000  Level Denver Center
Sun 12:26:49 PM 40.3775 -100.9575 80° East 496 571 29,000  Level Denver Center
Sun 12:27:51 PM 40.3997 -100.7908 80° East 491 565 29,000  Level Denver Center
Sun 12:28:53 PM 40.4250 -100.5961 80° East 490 564 29,000  Level Denver Center
Sun 12:29:55 PM 40.4461 -100.4286 81° East 490 564 29,000  Level Denver Center
Sun 12:30:57 PM 40.4708 -100.2342 80° East 487 560 29,000  Level Denver Center
Sun 12:31:59 PM 40.4914 -100.0656 81° East 490 564 29,000  Level Denver Center
Sun 12:33:01 PM 40.5158 -99.8694 81° East 489 563 29,000  Level Denver Center
Sun 12:34:03 PM 40.5372 -99.6917 81° East 490 564 29,000  Level Denver Center
Sun 12:35:17 PM 40.5581 -99.5150 81° East 491 565 29,000  Level Denver Center
Sun 12:36:20 PM 40.5825 -99.3025 81° East 491 565 29,000  Level Denver Center
Sun 12:37:22 PM 40.6031 -99.1264 81° East 491 565 29,000  Level Denver Center
Sun 12:38:18 PM 40.6242 -98.9508 81° East 491 565 29,000 -308 Level Minneapolis Center
Sun 12:39:19 PM 40.6428 -98.7722 82° East 495 570 28,400 -1,024 Descending Minneapolis Center
Sun 12:40:21 PM 40.6633 -98.5933 81° East 498 573 26,900 -1,548 Descending Minneapolis Center
Sun 12:41:23 PM 40.6864 -98.3844 82° East 487 560 25,200 -2,146 Descending Minneapolis Center
Sun 12:42:24 PM 40.7039 -98.2228 82° East 459 528 22,500 -3,073 Descending Minneapolis Center
Sun 12:43:26 PM 40.7194 -98.0669 82° East 438 504 18,900 -3,145 Descending Minneapolis Center
Sun 12:44:28 PM 40.7356 -97.9178 82° East 420 483 16,000 -2,903 Descending Minneapolis Center
Sun 12:45:30 PM 40.7500 -97.7781 82° East 395 455 12,900 -2,390 Descending Minneapolis Center
Sun 12:46:31 PM 40.7642 -97.6428 82° East 378 435 11,100 -1,056 Descending Minneapolis Center
Sun 12:47:18 PM 40.7536 -97.5186 96° East 369 425 11,000 -222 Descending Minneapolis Center
Sun 12:48:19 PM 40.7708 -97.3686 81° East 389 448 10,700 -393 Descending Minneapolis Center
Sun 12:49:20 PM 40.7850 -97.2436 81° East 337 388 10,200 -843 Descending Minneapolis Center
Sun 12:50:20 PM 40.7914 -97.1358 85° East 278 320 9,000 -1,388 Descending Minneapolis Center
Sun 12:51:21 PM 40.7792 -97.0297 99° East 297 342 7,400 -1,785 Descending Minneapolis Center
Sun 12:52:21 PM 40.7672 -96.9264 99° East 267 307 5,400 -1,884 Descending Minneapolis Center
Sun 12:53:22 PM 40.7553 -96.8286 99° East 263 303 3,600 -1,328 Descending Minneapolis Center
Sun 12:54:23 PM 40.7592 -96.7567 86° East 158 182 2,700 -942 Descending Minneapolis Center
Sun 12:55:23 PM 40.7947 -96.7558 North 119 137 1,700 -1,000 Descending Minneapolis Center
Sun 12:57:00 PM 40.8500 -96.7500 66° East  Level FlightAware Approximate
Sun 01:04:00 PM 40.8509 -96.7591 66° East  Level Estimated

Login

Don't have an account? Register now (free) for customized features, flight alerts, and more!